Time;durP1;ratioP1;P1;durP2;ratioP2;P2;SDS_P1;SDS_P2;PMS_P1;PMS_P2;Temp;Humidity;BMP_temperature;BMP_pressure;BME280_temperature;BME280_humidity;BME280_pressure;Samples;Min_cycle;Max_cycle;Signal;HPM_P1;HPM_P2
2021/09/16 00:00:31;;;;;;;4.85;0.45;;;;;;;;;;5017287;28;20509;-69
2021/09/16 00:02:57;;;;;;;6.20;0.50;;;;;;;;;;5014635;28;20133;-68
2021/09/16 00:05:23;;;;;;;5.45;0.73;;;;;;;;;;5018418;28;20052;-68
2021/09/16 00:07:49;;;;;;;6.30;0.88;;;;;;;;;;5008477;28;20096;-68
2021/09/16 00:10:16;;;;;;;5.00;0.60;;;;;;;;;;5016632;28;20049;-68
2021/09/16 00:12:42;;;;;;;4.72;0.50;;;;;;;;;;5015582;28;20506;-68
2021/09/16 00:15:10;;;;;;;5.72;0.70;;;;;;;;;;5022183;28;20037;-68
2021/09/16 00:17:36;;;;;;;5.45;0.70;;;;;;;;;;5013279;28;20128;-68
2021/09/16 00:20:03;;;;;;;6.22;0.63;;;;;;;;;;5023981;28;20038;-68
2021/09/16 00:22:31;;;;;;;5.75;0.57;;;;;;;;;;5014259;28;20389;-68
2021/09/16 00:24:57;;;;;;;2.22;0.30;;;;;;;;;;5023422;28;20061;-69
2021/09/16 00:27:23;;;;;;;4.47;0.70;;;;;;;;;;5024028;28;20037;-69
2021/09/16 00:29:49;;;;;;;5.03;0.75;;;;;;;;;;5019645;28;20175;-69
2021/09/16 00:32:15;;;;;;;5.03;0.60;;;;;;;;;;5021896;28;20041;-69
2021/09/16 00:34:41;;;;;;;7.45;1.17;;;;;;;;;;5012644;28;20162;-69
2021/09/16 00:37:07;;;;;;;5.35;0.77;;;;;;;;;;5028499;28;20037;-68
2021/09/16 00:39:33;;;;;;;3.83;0.40;;;;;;;;;;5014290;28;20053;-68
2021/09/16 00:42:00;;;;;;;5.97;0.70;;;;;;;;;;5008172;28;20100;-68
2021/09/16 00:44:26;;;;;;;6.43;0.50;;;;;;;;;;5020626;28;20114;-68
2021/09/16 00:46:52;;;;;;;3.95;0.50;;;;;;;;;;5021987;28;20050;-68
2021/09/16 00:49:18;;;;;;;4.35;0.57;;;;;;;;;;5011781;28;20498;-68
2021/09/16 00:51:46;;;;;;;3.92;0.50;;;;;;;;;;5023470;28;20034;-68
2021/09/16 00:54:13;;;;;;;3.13;0.40;;;;;;;;;;5016480;28;20124;-68
2021/09/16 00:56:39;;;;;;;7.78;0.60;;;;;;;;;;5023381;28;20459;-68
2021/09/16 00:59:06;;;;;;;5.22;0.50;;;;;;;;;;5010921;28;20064;-68
2021/09/16 01:01:33;;;;;;;4.65;0.43;;;;;;;;;;5023701;28;20041;-68
2021/09/16 01:03:59;;;;;;;3.92;0.35;;;;;;;;;;5012647;28;20412;-69
2021/09/16 01:06:25;;;;;;;7.75;0.40;;;;;;;;;;5016972;28;20136;-68
2021/09/16 01:08:52;;;;;;;3.53;0.47;;;;;;;;;;5023155;28;20124;-68
2021/09/16 01:11:20;;;;;;;6.82;0.60;;;;;;;;;;5018971;28;20037;-68
2021/09/16 01:13:46;;;;;;;4.57;0.50;;;;;;;;;;5017715;28;20045;-68
2021/09/16 01:16:13;;;;;;;4.53;0.63;;;;;;;;;;5017261;28;20137;-68
2021/09/16 01:18:39;;;;;;;4.53;0.43;;;;;;;;;;5023674;28;20124;-68
2021/09/16 01:21:05;;;;;;;7.00;0.70;;;;;;;;;;5010319;28;20054;-68
2021/09/16 01:23:31;;;;;;;4.47;0.60;;;;;;;;;;5013853;28;20545;-68
2021/09/16 01:25:57;;;;;;;5.45;0.60;;;;;;;;;;5010969;28;20102;-68
2021/09/16 01:28:23;;;;;;;2.08;0.50;;;;;;;;;;5022035;28;20037;-68
2021/09/16 01:30:49;;;;;;;3.85;0.88;;;;;;;;;;5010794;28;20034;-69
2021/09/16 01:33:16;;;;;;;4.75;0.70;;;;;;;;;;5013581;28;20041;-69
2021/09/16 01:35:42;;;;;;;4.15;0.75;;;;;;;;;;5015374;28;20045;-69
2021/09/16 01:38:08;;;;;;;5.00;0.65;;;;;;;;;;5022140;28;20455;-69
2021/09/16 01:40:34;;;;;;;5.07;0.52;;;;;;;;;;5012343;28;20501;-69
2021/09/16 01:43:01;;;;;;;4.53;0.40;;;;;;;;;;5022014;28;20049;-68
2021/09/16 01:45:27;;;;;;;4.90;0.85;;;;;;;;;;5020461;28;20037;-68
2021/09/16 01:47:53;;;;;;;6.05;0.63;;;;;;;;;;5014261;28;20095;-68
2021/09/16 01:50:22;;;;;;;4.72;0.50;;;;;;;;;;5016329;28;20038;-68
2021/09/16 01:52:49;;;;;;;6.45;0.50;;;;;;;;;;5012100;28;20042;-68
2021/09/16 01:55:15;;;;;;;4.40;0.60;;;;;;;;;;5016832;28;20041;-68
2021/09/16 01:57:41;;;;;;;6.43;0.63;;;;;;;;;;5014623;28;20168;-68
2021/09/16 02:00:08;;;;;;;4.18;0.55;;;;;;;;;;5017118;28;20504;-68
2021/09/16 02:02:34;;;;;;;3.20;0.68;;;;;;;;;;5014757;28;20053;-68
2021/09/16 02:05:00;;;;;;;4.30;0.50;;;;;;;;;;5014880;28;20067;-68
2021/09/16 02:07:26;;;;;;;4.60;0.88;;;;;;;;;;5015200;28;20383;-68
2021/09/16 02:09:53;;;;;;;6.07;0.70;;;;;;;;;;5016783;28;20410;-68
2021/09/16 02:12:19;;;;;;;8.93;0.80;;;;;;;;;;5016535;28;20488;-68
2021/09/16 02:14:45;;;;;;;8.32;1.35;;;;;;;;;;5023217;28;20398;-68
2021/09/16 02:17:11;;;;;;;7.03;0.95;;;;;;;;;;5015252;28;20054;-68
2021/09/16 02:19:37;;;;;;;7.15;0.80;;;;;;;;;;5018378;28;20037;-68
2021/09/16 02:22:03;;;;;;;3.25;0.63;;;;;;;;;;5013428;28;20123;-68
2021/09/16 02:24:29;;;;;;;6.13;0.68;;;;;;;;;;5021988;28;20361;-68
2021/09/16 02:26:56;;;;;;;8.48;1.00;;;;;;;;;;5018073;28;20533;-68
2021/09/16 02:29:22;;;;;;;8.52;0.80;;;;;;;;;;5013584;28;20041;-68
2021/09/16 02:31:48;;;;;;;8.85;1.05;;;;;;;;;;5018401;28;20044;-69
2021/09/16 02:34:14;;;;;;;8.30;1.15;;;;;;;;;;5015264;28;20034;-69
2021/09/16 02:36:40;;;;;;;4.18;0.60;;;;;;;;;;5022701;28;20037;-68
2021/09/16 02:39:06;;;;;;;5.13;0.90;;;;;;;;;;5019536;28;20045;-68
2021/09/16 02:41:32;;;;;;;6.90;1.00;;;;;;;;;;5020920;28;20033;-69
2021/09/16 02:43:58;;;;;;;6.28;0.93;;;;;;;;;;5011797;28;20060;-69
2021/09/16 02:46:24;;;;;;;9.20;1.10;;;;;;;;;;5021202;28;20482;-68
2021/09/16 02:48:50;;;;;;;9.30;1.20;;;;;;;;;;5016693;28;20046;-68
2021/09/16 02:51:16;;;;;;;6.82;0.80;;;;;;;;;;5015611;28;20457;-68
2021/09/16 02:53:43;;;;;;;8.20;0.82;;;;;;;;;;5007584;28;20037;-68
2021/09/16 02:56:09;;;;;;;6.10;1.00;;;;;;;;;;5013473;28;20046;-68
2021/09/16 02:58:35;;;;;;;7.70;1.13;;;;;;;;;;5009870;28;20057;-68
2021/09/16 03:01:01;;;;;;;5.50;1.15;;;;;;;;;;5020651;28;20280;-68
2021/09/16 03:03:27;;;;;;;9.27;1.20;;;;;;;;;;5022440;28;20148;-68
2021/09/16 03:05:53;;;;;;;9.75;1.48;;;;;;;;;;5016568;28;20056;-68
2021/09/16 03:08:19;;;;;;;6.13;0.90;;;;;;;;;;5017449;28;20030;-68
2021/09/16 03:10:45;;;;;;;4.63;1.15;;;;;;;;;;5008778;28;20465;-68
2021/09/16 03:13:11;;;;;;;9.77;1.60;;;;;;;;;;5016837;28;20468;-68
2021/09/16 03:15:38;;;;;;;16.13;1.80;;;;;;;;;;5011120;28;20484;-68
2021/09/16 03:18:05;;;;;;;7.22;1.40;;;;;;;;;;5018277;28;20099;-68
2021/09/16 03:20:31;;;;;;;6.30;1.20;;;;;;;;;;5012211;28;20049;-68
2021/09/16 03:22:57;;;;;;;9.93;1.58;;;;;;;;;;5016462;28;20526;-68
2021/09/16 03:25:23;;;;;;;7.70;1.20;;;;;;;;;;5014903;28;20505;-68
2021/09/16 03:27:49;;;;;;;7.70;1.77;;;;;;;;;;5016993;28;20513;-68
2021/09/16 03:30:15;;;;;;;5.15;1.65;;;;;;;;;;5012224;28;20490;-68
2021/09/16 03:32:42;;;;;;;6.05;1.40;;;;;;;;;;5017466;28;20049;-68
2021/09/16 03:35:09;;;;;;;5.75;1.70;;;;;;;;;;4998994;28;20124;-68
2021/09/16 03:37:35;;;;;;;6.95;1.60;;;;;;;;;;5019844;28;20040;-68
2021/09/16 03:40:01;;;;;;;5.85;2.05;;;;;;;;;;5011654;28;20056;-68
2021/09/16 03:42:27;;;;;;;7.15;1.70;;;;;;;;;;5014026;28;20045;-68
2021/09/16 03:44:54;;;;;;;4.05;1.80;;;;;;;;;;5020098;28;20046;-68
2021/09/16 03:47:20;;;;;;;8.63;2.63;;;;;;;;;;5016925;28;20414;-68
2021/09/16 03:49:46;;;;;;;8.63;2.15;;;;;;;;;;5019623;28;20530;-68
2021/09/16 03:52:12;;;;;;;8.60;1.92;;;;;;;;;;5020038;28;20486;-68
2021/09/16 03:54:38;;;;;;;9.32;1.90;;;;;;;;;;5022050;28;20042;-68
2021/09/16 03:57:05;;;;;;;6.90;2.00;;;;;;;;;;5010102;28;20432;-68
2021/09/16 03:59:31;;;;;;;9.23;2.03;;;;;;;;;;5020320;28;20046;-68
2021/09/16 04:01:57;;;;;;;6.90;2.20;;;;;;;;;;5009803;28;20034;-68
2021/09/16 04:04:23;;;;;;;11.10;2.42;;;;;;;;;;5020355;28;20068;-68
2021/09/16 04:06:50;;;;;;;9.43;2.60;;;;;;;;;;5017832;28;20055;-68
2021/09/16 04:09:16;;;;;;;11.60;2.80;;;;;;;;;;5017424;28;20507;-68
2021/09/16 04:11:42;;;;;;;7.78;2.22;;;;;;;;;;5014294;28;20502;-67
2021/09/16 04:14:08;;;;;;;7.35;2.50;;;;;;;;;;5024795;28;20046;-67
2021/09/16 04:16:34;;;;;;;10.38;2.60;;;;;;;;;;5021804;28;20046;-67
2021/09/16 04:19:00;;;;;;;8.65;1.90;;;;;;;;;;5016695;28;20553;-68
2021/09/16 04:21:26;;;;;;;9.93;2.50;;;;;;;;;;5015456;28;20436;-68
2021/09/16 04:23:52;;;;;;;8.50;2.35;;;;;;;;;;5015585;28;20069;-68
2021/09/16 04:26:18;;;;;;;9.20;2.60;;;;;;;;;;5022285;28;20049;-68
2021/09/16 04:28:44;;;;;;;14.32;2.88;;;;;;;;;;5010544;28;20087;-68
2021/09/16 04:31:11;;;;;;;10.25;3.03;;;;;;;;;;5019258;28;20042;-68
2021/09/16 04:33:37;;;;;;;9.90;2.75;;;;;;;;;;5014716;28;20041;-68
2021/09/16 04:36:03;;;;;;;10.60;3.60;;;;;;;;;;5017446;28;20045;-68
2021/09/16 04:38:29;;;;;;;8.23;3.40;;;;;;;;;;5018014;28;20052;-68
2021/09/16 04:40:55;;;;;;;12.90;3.25;;;;;;;;;;5023683;28;20034;-68
2021/09/16 04:43:21;;;;;;;14.55;3.78;;;;;;;;;;5021224;28;20041;-68
2021/09/16 04:45:47;;;;;;;16.55;3.80;;;;;;;;;;5017569;28;20045;-68
2021/09/16 04:48:13;;;;;;;9.48;3.47;;;;;;;;;;5016111;28;20052;-68
2021/09/16 04:50:39;;;;;;;12.60;3.58;;;;;;;;;;5024236;28;20037;-68
2021/09/16 04:53:06;;;;;;;10.35;3.42;;;;;;;;;;5012238;28;20483;-68
2021/09/16 04:55:32;;;;;;;12.85;3.95;;;;;;;;;;5016610;28;20029;-68
2021/09/16 04:57:58;;;;;;;12.60;4.05;;;;;;;;;;5016295;28;20053;-68
2021/09/16 05:00:24;;;;;;;15.82;5.32;;;;;;;;;;5017740;28;20106;-68
2021/09/16 05:02:50;;;;;;;9.52;4.00;;;;;;;;;;5019018;28;20057;-68
2021/09/16 05:05:16;;;;;;;14.13;5.05;;;;;;;;;;5017059;28;20049;-68
2021/09/16 05:07:42;;;;;;;13.55;4.60;;;;;;;;;;5018493;28;20409;-68
2021/09/16 05:10:09;;;;;;;11.60;3.95;;;;;;;;;;5009665;28;20481;-68
2021/09/16 05:12:35;;;;;;;8.55;4.57;;;;;;;;;;5018141;28;20045;-68
2021/09/16 05:15:01;;;;;;;22.20;5.20;;;;;;;;;;5012976;28;20034;-68
2021/09/16 05:17:27;;;;;;;16.65;5.10;;;;;;;;;;5017829;28;20065;-68
2021/09/16 05:19:53;;;;;;;10.32;5.30;;;;;;;;;;5012457;28;20080;-68
2021/09/16 05:22:20;;;;;;;12.82;5.65;;;;;;;;;;5022072;28;20050;-68
2021/09/16 05:24:46;;;;;;;13.27;5.25;;;;;;;;;;5014719;28;20069;-68
2021/09/16 05:27:12;;;;;;;10.98;4.85;;;;;;;;;;5024687;28;20513;-67
2021/09/16 05:29:38;;;;;;;14.27;5.13;;;;;;;;;;5018420;28;20042;-68
2021/09/16 05:32:05;;;;;;;13.48;5.13;;;;;;;;;;5020015;28;20121;-67
2021/09/16 05:34:31;;;;;;;17.20;6.50;;;;;;;;;;5011708;28;20124;-67
2021/09/16 05:36:57;;;;;;;13.52;5.82;;;;;;;;;;5021087;28;20049;-67
2021/09/16 05:39:23;;;;;;;13.30;5.85;;;;;;;;;;5016875;28;20053;-67
2021/09/16 05:41:49;;;;;;;9.65;5.13;;;;;;;;;;5012450;28;20084;-67
2021/09/16 05:44:15;;;;;;;12.70;5.00;;;;;;;;;;5015182;28;20042;-67
2021/09/16 05:46:41;;;;;;;14.90;5.05;;;;;;;;;;5015880;28;20128;-67
2021/09/16 05:49:08;;;;;;;10.75;5.13;;;;;;;;;;5022328;28;20771;-67
2021/09/16 05:51:34;;;;;;;15.52;5.60;;;;;;;;;;5015408;28;20656;-67
2021/09/16 05:54:00;;;;;;;16.05;5.47;;;;;;;;;;5020797;28;20121;-67
2021/09/16 05:56:26;;;;;;;11.85;5.45;;;;;;;;;;5013407;28;20493;-67
2021/09/16 05:58:52;;;;;;;12.82;5.50;;;;;;;;;;5017600;28;20069;-67
2021/09/16 06:01:18;;;;;;;17.98;5.90;;;;;;;;;;5017882;28;20068;-67
2021/09/16 06:03:45;;;;;;;19.20;5.97;;;;;;;;;;5020365;28;20053;-67
2021/09/16 06:06:11;;;;;;;12.50;5.53;;;;;;;;;;5016340;28;20053;-67
2021/09/16 06:08:37;;;;;;;16.13;4.65;;;;;;;;;;5018027;28;20172;-67
2021/09/16 06:11:03;;;;;;;15.98;5.15;;;;;;;;;;5014883;28;20038;-67
2021/09/16 06:13:29;;;;;;;11.45;5.28;;;;;;;;;;5015660;28;20113;-67
2021/09/16 06:15:55;;;;;;;13.27;4.70;;;;;;;;;;5018261;28;20048;-67
2021/09/16 06:18:22;;;;;;;12.65;5.07;;;;;;;;;;5011090;28;20057;-67
2021/09/16 06:20:49;;;;;;;15.07;4.97;;;;;;;;;;5014600;28;20406;-67
2021/09/16 06:23:16;;;;;;;10.93;4.60;;;;;;;;;;5010893;28;20044;-67
2021/09/16 06:25:42;;;;;;;13.18;4.15;;;;;;;;;;5025913;28;20040;-67
2021/09/16 06:28:09;;;;;;;14.85;4.25;;;;;;;;;;5012804;28;20490;-67
2021/09/16 06:30:35;;;;;;;15.02;4.35;;;;;;;;;;5018820;28;20136;-68
2021/09/16 06:33:01;;;;;;;13.45;4.28;;;;;;;;;;5014538;28;20704;-68
2021/09/16 06:35:27;;;;;;;11.60;4.03;;;;;;;;;;5024494;28;20060;-67
2021/09/16 06:37:53;;;;;;;17.08;4.78;;;;;;;;;;5009154;28;20540;-67
2021/09/16 06:40:19;;;;;;;11.13;4.03;;;;;;;;;;5017837;28;20076;-67
2021/09/16 06:42:46;;;;;;;8.10;3.90;;;;;;;;;;5011409;28;20042;-67
2021/09/16 06:45:12;;;;;;;13.57;4.07;;;;;;;;;;5014833;28;20049;-67
2021/09/16 06:47:39;;;;;;;11.02;3.50;;;;;;;;;;5016365;28;20053;-67
2021/09/16 06:50:05;;;;;;;14.13;3.40;;;;;;;;;;5019811;28;20133;-67
2021/09/16 06:52:31;;;;;;;9.95;3.28;;;;;;;;;;5015123;28;20444;-67
2021/09/16 06:54:58;;;;;;;9.77;2.83;;;;;;;;;;5020400;28;20034;-67
2021/09/16 06:57:24;;;;;;;11.65;3.10;;;;;;;;;;5021369;28;20042;-67
2021/09/16 06:59:51;;;;;;;7.15;3.05;;;;;;;;;;5012918;28;20557;-66
2021/09/16 07:02:17;;;;;;;14.13;3.55;;;;;;;;;;5023152;28;20475;-66
2021/09/16 07:04:43;;;;;;;7.90;2.78;;;;;;;;;;5016507;28;20143;-66
2021/09/16 07:07:09;;;;;;;7.47;3.00;;;;;;;;;;5023154;28;20053;-66
2021/09/16 07:09:35;;;;;;;8.43;2.83;;;;;;;;;;5010581;28;20053;-67
2021/09/16 07:12:01;;;;;;;6.88;2.80;;;;;;;;;;5014957;28;20038;-66
2021/09/16 07:14:30;;;;;;;8.45;2.60;;;;;;;;;;5015994;28;20041;-67
2021/09/16 07:16:59;;;;;;;9.60;2.45;;;;;;;;;;5014673;28;20049;-67
2021/09/16 07:19:25;;;;;;;5.90;2.17;;;;;;;;;;5011201;28;20095;-67
2021/09/16 07:21:52;;;;;;;8.75;2.20;;;;;;;;;;5011535;28;20046;-67
2021/09/16 07:24:18;;;;;;;6.18;1.98;;;;;;;;;;5013770;28;20044;-67
2021/09/16 07:26:50;;;;;;;10.40;2.20;;;;;;;;;;5020849;28;20041;-67
2021/09/16 07:29:17;;;;;;;9.35;2.35;;;;;;;;;;5013233;28;20611;-67
2021/09/16 07:31:43;;;;;;;4.70;2.20;;;;;;;;;;5014126;28;20041;-67
2021/09/16 07:34:09;;;;;;;10.20;2.20;;;;;;;;;;5009601;28;20038;-67
2021/09/16 07:36:36;;;;;;;7.82;2.45;;;;;;;;;;5020281;28;20065;-67
2021/09/16 07:39:02;;;;;;;8.93;2.05;;;;;;;;;;5022360;28;20157;-67
2021/09/16 07:41:28;;;;;;;5.25;2.08;;;;;;;;;;5015001;28;20129;-67
2021/09/16 07:43:54;;;;;;;6.22;2.80;;;;;;;;;;5022724;28;20045;-67
2021/09/16 07:46:20;;;;;;;7.68;2.30;;;;;;;;;;5015794;28;20131;-67
2021/09/16 07:48:47;;;;;;;8.25;2.97;;;;;;;;;;5018680;28;20510;-67
2021/09/16 07:51:13;;;;;;;8.68;2.83;;;;;;;;;;5008416;28;20398;-67
2021/09/16 07:53:39;;;;;;;6.65;2.45;;;;;;;;;;5017120;28;20486;-67
2021/09/16 07:56:05;;;;;;;6.65;2.47;;;;;;;;;;5015777;28;20553;-67
2021/09/16 07:58:31;;;;;;;7.60;1.80;;;;;;;;;;5019358;28;20048;-67
2021/09/16 08:00:57;;;;;;;6.97;1.98;;;;;;;;;;5009324;28;20436;-67
2021/09/16 08:03:23;;;;;;;8.23;2.83;;;;;;;;;;5013368;28;20497;-67
2021/09/16 08:05:50;;;;;;;7.25;2.25;;;;;;;;;;5016326;28;20049;-67
2021/09/16 08:08:16;;;;;;;8.40;2.08;;;;;;;;;;5010734;28;20050;-67
2021/09/16 08:10:42;;;;;;;7.55;1.80;;;;;;;;;;5017983;28;25507;-67
2021/09/16 08:13:08;;;;;;;6.38;2.00;;;;;;;;;;5021598;28;20046;-67
2021/09/16 08:15:34;;;;;;;6.72;2.42;;;;;;;;;;5016286;28;20059;-67
2021/09/16 08:18:01;;;;;;;8.18;1.90;;;;;;;;;;5011596;28;20398;-67
2021/09/16 08:20:27;;;;;;;9.15;1.60;;;;;;;;;;5016601;28;20041;-67
2021/09/16 08:22:54;;;;;;;8.50;1.80;;;;;;;;;;5015805;28;20467;-67
2021/09/16 08:25:20;;;;;;;7.55;1.88;;;;;;;;;;5016333;28;20041;-67
2021/09/16 08:27:47;;;;;;;5.85;1.48;;;;;;;;;;5014731;28;20037;-67
2021/09/16 08:30:13;;;;;;;9.05;1.92;;;;;;;;;;5014687;28;20049;-67
2021/09/16 08:32:40;;;;;;;8.50;1.70;;;;;;;;;;5011527;28;20406;-67
2021/09/16 08:35:07;;;;;;;6.93;1.20;;;;;;;;;;5025726;28;20099;-67
2021/09/16 08:37:34;;;;;;;6.60;1.40;;;;;;;;;;5014525;28;20038;-67
2021/09/16 08:40:00;;;;;;;8.13;1.60;;;;;;;;;;5017489;28;20045;-67
2021/09/16 08:42:26;;;;;;;5.63;1.65;;;;;;;;;;5011007;28;20053;-67
2021/09/16 08:44:53;;;;;;;5.75;1.33;;;;;;;;;;5012455;28;20633;-67
2021/09/16 08:47:21;;;;;;;9.93;1.40;;;;;;;;;;5013729;28;20042;-67
2021/09/16 08:49:49;;;;;;;6.25;1.40;;;;;;;;;;5020044;28;20176;-67
2021/09/16 08:52:16;;;;;;;8.75;1.45;;;;;;;;;;5007838;28;20042;-67
2021/09/16 08:54:43;;;;;;;8.13;1.52;;;;;;;;;;5026308;28;20116;-67
2021/09/16 08:57:13;;;;;;;7.93;1.48;;;;;;;;;;5022106;28;20034;-67
2021/09/16 08:59:41;;;;;;;9.80;1.40;;;;;;;;;;5021969;28;20049;-67
2021/09/16 09:02:08;;;;;;;6.43;1.13;;;;;;;;;;5016011;28;20115;-67
2021/09/16 09:04:34;;;;;;;8.15;1.40;;;;;;;;;;5020160;28;20053;-67
2021/09/16 09:07:05;;;;;;;7.05;1.35;;;;;;;;;;5026494;28;20145;-67
2021/09/16 09:09:32;;;;;;;7.28;1.38;;;;;;;;;;5009056;28;20095;-67
2021/09/16 09:12:13;;;;;;;6.03;1.23;;;;;;;;;;5023570;28;20124;-67
2021/09/16 09:14:42;;;;;;;9.25;1.48;;;;;;;;;;5012629;28;20116;-67
2021/09/16 09:17:22;;;;;;;6.50;1.13;;;;;;;;;;5017227;28;20069;-67
2021/09/16 09:19:50;;;;;;;9.30;1.30;;;;;;;;;;5010498;28;20426;-67
2021/09/16 09:22:16;;;;;;;9.73;1.20;;;;;;;;;;5016212;28;20095;-66
2021/09/16 09:24:44;;;;;;;4.60;0.90;;;;;;;;;;5013572;28;20040;-66
2021/09/16 09:27:33;;;;;;;6.13;1.20;;;;;;;;;;5025949;28;20111;-66
2021/09/16 09:30:07;;;;;;;5.35;0.98;;;;;;;;;;5010231;28;20088;-66
2021/09/16 09:32:53;;;;;;;6.18;1.10;;;;;;;;;;5017297;28;20074;-67
2021/09/16 09:35:23;;;;;;;5.97;1.10;;;;;;;;;;5012384;28;20042;-66
2021/09/16 09:37:49;;;;;;;3.97;0.90;;;;;;;;;;5020353;28;20258;-66
2021/09/16 09:40:15;;;;;;;4.38;1.10;;;;;;;;;;5018950;28;20050;-66
2021/09/16 09:42:41;;;;;;;4.68;0.88;;;;;;;;;;5017251;28;20559;-66
2021/09/16 09:45:09;;;;;;;5.32;1.17;;;;;;;;;;5014590;28;20470;-66
2021/09/16 09:47:36;;;;;;;4.03;0.80;;;;;;;;;;5024279;28;20457;-66
2021/09/16 09:50:04;;;;;;;4.63;0.60;;;;;;;;;;5010717;28;20060;-66
2021/09/16 09:52:30;;;;;;;3.30;0.70;;;;;;;;;;5019151;28;20037;-66
2021/09/16 09:54:56;;;;;;;3.38;0.70;;;;;;;;;;5013423;28;20124;-66
2021/09/16 09:57:22;;;;;;;4.53;1.25;;;;;;;;;;5024069;28;20445;-66
2021/09/16 09:59:52;;;;;;;3.78;0.60;;;;;;;;;;5010386;28;20084;-66
2021/09/16 10:02:19;;;;;;;2.88;0.70;;;;;;;;;;5018617;28;20080;-66
2021/09/16 10:04:45;;;;;;;4.82;0.73;;;;;;;;;;5017809;28;20081;-66
2021/09/16 10:07:31;;;;;;;6.18;0.82;;;;;;;;;;5019514;28;20058;-66
2021/09/16 10:09:58;;;;;;;5.00;0.80;;;;;;;;;;5021901;28;20041;-66
2021/09/16 10:12:25;;;;;;;5.45;0.88;;;;;;;;;;5019670;28;20475;-66
2021/09/16 10:14:51;;;;;;;3.85;0.85;;;;;;;;;;5016357;28;20192;-66
2021/09/16 10:17:17;;;;;;;5.13;0.93;;;;;;;;;;5017098;28;20490;-66
2021/09/16 10:19:44;;;;;;;3.83;0.60;;;;;;;;;;5022716;28;20069;-66
2021/09/16 10:22:10;;;;;;;5.03;0.70;;;;;;;;;;5015974;28;20444;-66
2021/09/16 10:24:37;;;;;;;2.60;0.55;;;;;;;;;;5013929;28;20095;-66
2021/09/16 10:27:03;;;;;;;5.20;0.60;;;;;;;;;;5013663;28;20544;-66
2021/09/16 10:29:29;;;;;;;2.55;0.70;;;;;;;;;;5024732;28;20042;-66
2021/09/16 10:32:07;;;;;;;5.18;0.70;;;;;;;;;;5015443;28;20112;-66
2021/09/16 10:34:44;;;;;;;6.93;0.60;;;;;;;;;;5018579;28;20057;-66
2021/09/16 10:37:17;;;;;;;4.45;0.90;;;;;;;;;;5016199;28;20152;-66
2021/09/16 10:39:44;;;;;;;4.07;0.80;;;;;;;;;;5020319;28;20516;-66
2021/09/16 10:42:11;;;;;;;5.65;0.82;;;;;;;;;;5013795;28;20049;-66
2021/09/16 10:44:38;;;;;;;4.57;0.60;;;;;;;;;;5025387;28;20049;-66
2021/09/16 10:47:19;;;;;;;5.45;0.90;;;;;;;;;;5014470;28;20068;-66
2021/09/16 10:49:46;;;;;;;5.78;0.88;;;;;;;;;;5017691;28;20434;-66
2021/09/16 10:52:12;;;;;;;4.00;0.90;;;;;;;;;;5012752;28;20037;-66
2021/09/16 10:54:46;;;;;;;7.68;1.40;;;;;;;;;;5017417;28;20081;-66
2021/09/16 10:57:13;;;;;;;4.30;0.90;;;;;;;;;;5011584;28;20037;-67
2021/09/16 10:59:54;;;;;;;3.33;0.70;;;;;;;;;;5022121;28;20048;-67
2021/09/16 11:02:23;;;;;;;4.05;0.60;;;;;;;;;;5015505;28;20493;-67
2021/09/16 11:04:58;;;;;;;3.20;0.70;;;;;;;;;;5013571;28;20100;-67
2021/09/16 11:07:34;;;;;;;2.30;0.35;;;;;;;;;;5015873;28;20445;-67
2021/09/16 11:10:22;;;;;;;5.82;0.68;;;;;;;;;;5021720;28;20047;-66
2021/09/16 11:12:56;;;;;;;4.10;0.52;;;;;;;;;;5017095;28;20118;-67
2021/09/16 11:15:26;;;;;;;4.70;0.80;;;;;;;;;;5015455;28;20048;-67
2021/09/16 11:18:01;;;;;;;2.60;0.95;;;;;;;;;;5016375;28;20061;-67
2021/09/16 11:20:27;;;;;;;4.00;0.70;;;;;;;;;;5015672;28;20340;-67
2021/09/16 11:22:53;;;;;;;5.35;1.02;;;;;;;;;;5008209;28;20207;-67
2021/09/16 11:25:19;;;;;;;2.15;0.68;;;;;;;;;;5014499;28;20050;-67
2021/09/16 11:27:46;;;;;;;4.47;0.75;;;;;;;;;;5015362;28;20041;-67
2021/09/16 11:30:16;;;;;;;3.40;0.45;;;;;;;;;;5010068;28;20046;-67
2021/09/16 11:32:43;;;;;;;3.95;0.70;;;;;;;;;;5013101;28;20406;-67
2021/09/16 11:35:16;;;;;;;5.60;0.57;;;;;;;;;;5008794;28;20069;-67
2021/09/16 11:37:44;;;;;;;2.88;0.55;;;;;;;;;;5019058;28;20083;-68
2021/09/16 11:40:15;;;;;;;3.00;0.43;;;;;;;;;;5016238;28;20050;-68
2021/09/16 11:42:42;;;;;;;4.93;0.75;;;;;;;;;;5018565;28;20041;-68
2021/09/16 11:45:11;;;;;;;3.35;0.60;;;;;;;;;;5015271;28;20067;-68
2021/09/16 11:47:41;;;;;;;3.45;0.60;;;;;;;;;;5018848;28;20749;-68
2021/09/16 11:50:10;;;;;;;5.07;0.80;;;;;;;;;;5015987;28;20046;-67
2021/09/16 11:52:38;;;;;;;2.10;0.65;;;;;;;;;;5022137;28;20227;-67
2021/09/16 11:55:05;;;;;;;4.25;0.68;;;;;;;;;;5012518;28;20072;-68
2021/09/16 11:57:31;;;;;;;2.40;0.60;;;;;;;;;;5019250;28;20048;-68
2021/09/16 11:59:57;;;;;;;3.10;0.85;;;;;;;;;;5010634;28;20057;-68
2021/09/16 12:02:23;;;;;;;3.88;0.52;;;;;;;;;;5021764;28;20052;-68
2021/09/16 12:04:50;;;;;;;3.75;0.60;;;;;;;;;;5015961;28;20049;-68
2021/09/16 12:07:17;;;;;;;4.22;0.70;;;;;;;;;;5012222;28;20133;-68
2021/09/16 12:09:43;;;;;;;4.07;0.55;;;;;;;;;;5013927;28;20069;-67
2021/09/16 12:12:09;;;;;;;4.70;0.60;;;;;;;;;;5015498;28;20108;-67
2021/09/16 12:14:36;;;;;;;4.55;0.88;;;;;;;;;;5019893;28;20029;-67
2021/09/16 12:17:03;;;;;;;2.97;0.70;;;;;;;;;;5009591;28;20092;-67
2021/09/16 12:19:30;;;;;;;3.25;0.95;;;;;;;;;;5025977;28;20061;-67
2021/09/16 12:21:56;;;;;;;3.42;0.77;;;;;;;;;;5016613;28;20053;-67
2021/09/16 12:24:27;;;;;;;3.72;0.98;;;;;;;;;;5022610;28;20404;-67
2021/09/16 12:26:54;;;;;;;2.80;0.50;;;;;;;;;;5020535;28;20129;-67
2021/09/16 12:29:25;;;;;;;3.35;0.70;;;;;;;;;;5022603;28;20139;-67
2021/09/16 12:31:56;;;;;;;3.53;0.60;;;;;;;;;;5017300;28;20042;-67
2021/09/16 12:34:22;;;;;;;4.50;0.80;;;;;;;;;;5020931;28;20079;-67
2021/09/16 12:36:57;;;;;;;1.92;0.70;;;;;;;;;;5018595;28;20045;-68
2021/09/16 12:39:25;;;;;;;2.67;0.45;;;;;;;;;;5020106;28;20515;-68
2021/09/16 12:41:55;;;;;;;2.53;0.55;;;;;;;;;;5014879;28;20575;-68
2021/09/16 12:44:25;;;;;;;4.63;0.60;;;;;;;;;;5021000;28;20067;-67
2021/09/16 12:47:12;;;;;;;2.45;0.60;;;;;;;;;;5018758;28;20046;-67
2021/09/16 12:49:45;;;;;;;3.35;0.90;;;;;;;;;;5025336;28;20506;-67
2021/09/16 12:52:11;;;;;;;4.80;0.68;;;;;;;;;;5024246;28;20041;-67
2021/09/16 12:54:42;;;;;;;1.70;0.52;;;;;;;;;;5020864;28;20046;-67
2021/09/16 12:57:08;;;;;;;3.78;0.60;;;;;;;;;;5015963;28;20061;-67
2021/09/16 12:59:34;;;;;;;3.47;0.68;;;;;;;;;;5026565;28;20387;-67
2021/09/16 13:02:18;;;;;;;3.45;0.45;;;;;;;;;;5015376;28;20497;-67
2021/09/16 13:04:49;;;;;;;1.92;0.60;;;;;;;;;;5022282;28;20588;-67
2021/09/16 13:07:15;;;;;;;3.80;0.50;;;;;;;;;;5015795;28;20038;-66
2021/09/16 13:09:41;;;;;;;2.05;0.40;;;;;;;;;;5019094;28;20041;-66
2021/09/16 13:12:14;;;;;;;3.42;0.40;;;;;;;;;;5015118;28;20041;-66
2021/09/16 13:14:41;;;;;;;1.77;0.50;;;;;;;;;;5025413;28;20088;-66
2021/09/16 13:17:07;;;;;;;4.07;0.60;;;;;;;;;;5017033;28;20742;-66
2021/09/16 13:19:34;;;;;;;3.88;0.60;;;;;;;;;;5015487;28;20045;-66
2021/09/16 13:22:00;;;;;;;0.90;0.43;;;;;;;;;;5018252;28;20091;-66
2021/09/16 13:24:26;;;;;;;2.00;0.68;;;;;;;;;;5017572;28;20046;-66
2021/09/16 13:26:52;;;;;;;1.67;0.60;;;;;;;;;;5023348;28;20462;-66
2021/09/16 13:29:18;;;;;;;1.73;0.43;;;;;;;;;;5021535;28;20041;-67
2021/09/16 13:31:45;;;;;;;3.08;0.50;;;;;;;;;;5021320;28;20469;-67
2021/09/16 13:34:12;;;;;;;2.15;0.52;;;;;;;;;;5014624;28;20040;-66
2021/09/16 13:36:38;;;;;;;2.35;0.50;;;;;;;;;;5016564;28;20099;-66
2021/09/16 13:39:04;;;;;;;2.55;0.80;;;;;;;;;;5012453;28;20037;-67
2021/09/16 13:41:31;;;;;;;2.13;0.47;;;;;;;;;;5018279;28;20041;-66
2021/09/16 13:43:57;;;;;;;3.88;1.15;;;;;;;;;;5011434;28;21149;-66
2021/09/16 13:46:23;;;;;;;3.28;0.45;;;;;;;;;;5013925;28;20049;-66
2021/09/16 13:48:49;;;;;;;2.75;0.63;;;;;;;;;;5019254;28;20033;-66
2021/09/16 13:51:15;;;;;;;1.75;0.63;;;;;;;;;;5019664;28;20061;-66
2021/09/16 13:53:41;;;;;;;2.92;0.70;;;;;;;;;;5009706;28;20112;-66
2021/09/16 13:56:08;;;;;;;2.50;0.65;;;;;;;;;;5014059;28;20042;-66
2021/09/16 13:58:34;;;;;;;3.15;0.70;;;;;;;;;;5017758;28;20152;-66
2021/09/16 14:01:00;;;;;;;3.20;0.60;;;;;;;;;;5013275;28;20327;-66
2021/09/16 14:03:26;;;;;;;6.10;0.93;;;;;;;;;;5020054;28;20125;-66
2021/09/16 14:05:52;;;;;;;4.50;0.93;;;;;;;;;;5017705;28;20053;-66
2021/09/16 14:08:18;;;;;;;6.38;0.90;;;;;;;;;;5018081;28;20037;-66
2021/09/16 14:10:47;;;;;;;7.20;1.05;;;;;;;;;;5010394;28;20069;-66
2021/09/16 14:13:13;;;;;;;3.40;0.68;;;;;;;;;;5013767;28;20037;-66
2021/09/16 14:15:39;;;;;;;4.13;0.88;;;;;;;;;;5018957;28;20049;-66
2021/09/16 14:18:05;;;;;;;1.65;0.70;;;;;;;;;;5018342;28;20045;-65
2021/09/16 14:20:31;;;;;;;3.63;0.70;;;;;;;;;;5012045;28;20478;-66
2021/09/16 14:22:57;;;;;;;3.30;0.70;;;;;;;;;;5014588;28;20553;-66
2021/09/16 14:25:24;;;;;;;3.10;0.93;;;;;;;;;;5015336;28;20061;-66
2021/09/16 14:27:50;;;;;;;2.40;0.93;;;;;;;;;;5016759;28;20132;-66
2021/09/16 14:30:16;;;;;;;4.13;1.00;;;;;;;;;;5011822;28;20054;-66
2021/09/16 14:32:42;;;;;;;5.25;0.98;;;;;;;;;;5019998;28;20120;-66
2021/09/16 14:35:08;;;;;;;4.85;1.05;;;;;;;;;;5024507;28;20037;-66
2021/09/16 14:37:35;;;;;;;4.78;1.17;;;;;;;;;;5017443;28;20430;-66
2021/09/16 14:40:01;;;;;;;3.28;0.93;;;;;;;;;;5018543;28;20064;-66